createdAt,value
2023-05-07T00:00:57.997Z,16.00
2023-05-07T00:01:58.094Z,16.00
2023-05-07T00:02:58.263Z,16.01
2023-05-07T00:03:58.404Z,16.01
2023-05-07T00:04:58.353Z,16.03
2023-05-07T00:05:58.362Z,16.03
2023-05-07T00:06:58.450Z,16.06
2023-05-07T00:07:59.724Z,16.06
2023-05-07T00:08:58.623Z,16.07
2023-05-07T00:09:58.688Z,16.09
2023-05-07T00:10:58.755Z,16.09
2023-05-07T00:11:58.809Z,16.11
2023-05-07T00:12:58.924Z,16.09
2023-05-07T00:13:58.980Z,16.06
2023-05-07T00:14:59.101Z,16.06
2023-05-07T00:15:59.181Z,16.03
2023-05-07T00:16:59.320Z,16.01
2023-05-07T00:17:59.384Z,16.00
2023-05-07T00:18:59.429Z,15.99
2023-05-07T00:19:59.517Z,15.99
2023-05-07T00:20:59.643Z,15.99
2023-05-07T00:21:59.690Z,15.97
2023-05-07T00:22:59.798Z,15.94
2023-05-07T00:23:59.882Z,15.93
2023-05-07T00:24:59.957Z,15.89
2023-05-07T00:26:00.005Z,15.89
2023-05-07T00:27:00.135Z,15.89
2023-05-07T00:28:00.197Z,15.89
2023-05-07T00:29:00.300Z,15.93
2023-05-07T00:30:00.848Z,15.93
2023-05-07T00:31:00.499Z,15.93
2023-05-07T00:32:00.672Z,15.94
2023-05-07T00:33:00.674Z,15.96
2023-05-07T00:34:00.717Z,15.96
2023-05-07T00:35:00.813Z,15.99
2023-05-07T00:36:00.913Z,15.97
2023-05-07T00:37:00.968Z,15.99
2023-05-07T00:38:01.057Z,15.97
2023-05-07T00:39:01.132Z,15.94
2023-05-07T00:40:01.204Z,15.94
2023-05-07T00:41:01.329Z,15.94
2023-05-07T00:42:01.386Z,15.93
2023-05-07T00:43:01.478Z,15.94
2023-05-07T00:44:01.562Z,15.94
2023-05-07T00:45:01.644Z,15.94
2023-05-07T00:46:01.804Z,15.96
2023-05-07T00:47:01.824Z,15.96
2023-05-07T00:48:02.045Z,15.97
2023-05-07T00:49:02.000Z,15.97
2023-05-07T00:50:02.056Z,15.97
2023-05-07T00:51:02.164Z,16.00
2023-05-07T00:52:02.230Z,15.99
2023-05-07T00:53:02.274Z,15.99
2023-05-07T00:54:02.360Z,15.99
2023-05-07T00:55:02.440Z,16.00
2023-05-07T00:56:02.563Z,16.00
2023-05-07T00:57:02.621Z,16.01
2023-05-07T00:58:02.713Z,16.00
2023-05-07T00:59:02.815Z,16.01
2023-05-07T01:00:02.852Z,16.01
2023-05-07T01:01:02.993Z,16.01
2023-05-07T01:02:03.054Z,16.01
2023-05-07T01:03:03.155Z,16.01
2023-05-07T01:04:03.215Z,16.01
2023-05-07T01:05:03.250Z,16.03
2023-05-07T01:06:03.348Z,16.03
2023-05-07T01:07:03.411Z,16.03
2023-05-07T01:08:03.464Z,16.03
2023-05-07T01:09:03.548Z,16.03
2023-05-07T01:10:03.666Z,16.06
2023-05-07T01:11:03.778Z,16.06
2023-05-07T01:12:03.783Z,16.06
2023-05-07T01:13:03.957Z,16.04
2023-05-07T01:14:03.964Z,16.03
2023-05-07T01:15:04.050Z,16.03
2023-05-07T01:16:04.166Z,16.01
2023-05-07T01:17:04.298Z,16.01
2023-05-07T01:18:04.376Z,16.00
2023-05-07T01:19:04.421Z,16.00
2023-05-07T01:20:04.512Z,15.99
2023-05-07T01:21:04.619Z,15.97
2023-05-07T01:22:04.686Z,15.96
2023-05-07T01:23:04.794Z,15.94
2023-05-07T01:24:04.856Z,15.94
2023-05-07T01:25:04.968Z,15.94
2023-05-07T01:26:05.035Z,15.92
2023-05-07T01:27:05.115Z,15.92
2023-05-07T01:28:05.212Z,15.92
2023-05-07T01:29:05.324Z,15.89
2023-05-07T01:30:05.382Z,15.88
2023-05-07T01:31:05.576Z,15.89
2023-05-07T01:32:05.529Z,15.88
2023-05-07T01:33:05.673Z,15.88
2023-05-07T01:34:06.234Z,15.88
2023-05-07T01:35:05.755Z,15.86
2023-05-07T01:36:05.840Z,15.86
2023-05-07T01:37:05.916Z,15.86
2023-05-07T01:38:05.953Z,15.86
2023-05-07T01:39:06.054Z,15.86
2023-05-07T01:40:06.149Z,15.88
2023-05-07T01:41:06.286Z,15.85
2023-05-07T01:42:06.331Z,15.84
2023-05-07T01:43:06.498Z,15.82
2023-05-07T01:44:06.525Z,15.81
2023-05-07T01:45:06.648Z,15.81
2023-05-07T01:46:06.746Z,15.79
2023-05-07T01:47:06.782Z,15.78
2023-05-07T01:48:06.965Z,15.74
2023-05-07T01:49:06.966Z,15.70
2023-05-07T01:50:07.141Z,15.66
2023-05-07T01:51:07.188Z,15.63
2023-05-07T01:52:07.244Z,15.60
2023-05-07T01:53:07.328Z,15.56
2023-05-07T01:54:07.417Z,15.54
2023-05-07T01:55:07.521Z,15.52
2023-05-07T01:56:07.649Z,15.49
2023-05-07T01:57:07.694Z,15.49
2023-05-07T01:58:07.810Z,15.48
2023-05-07T01:59:07.874Z,15.48
2023-05-07T02:00:08.023Z,15.48
2023-05-07T02:01:08.046Z,15.48
2023-05-07T02:02:08.220Z,15.46
2023-05-07T02:03:08.261Z,15.49
2023-05-07T02:04:08.494Z,15.49
2023-05-07T02:05:08.368Z,15.49
2023-05-07T02:06:09.722Z,15.49
2023-05-07T02:07:08.554Z,15.49
2023-05-07T02:08:08.638Z,15.51
2023-05-07T02:09:09.402Z,15.49
2023-05-07T02:10:09.098Z,15.49
2023-05-07T02:11:08.861Z,15.48
2023-05-07T02:12:08.921Z,15.48
2023-05-07T02:13:09.021Z,15.46
2023-05-07T02:14:09.090Z,15.48
2023-05-07T02:15:09.208Z,15.48
2023-05-07T02:16:09.342Z,15.46
2023-05-07T02:17:09.324Z,15.46
2023-05-07T02:18:09.422Z,15.46
2023-05-07T02:19:09.487Z,15.46
2023-05-07T02:20:09.724Z,15.45
2023-05-07T02:21:09.672Z,15.45
2023-05-07T02:22:09.776Z,15.45
2023-05-07T02:23:09.867Z,15.45
2023-05-07T02:24:09.959Z,15.43
2023-05-07T02:25:10.008Z,15.42
2023-05-07T02:26:10.111Z,15.42
2023-05-07T02:27:10.158Z,15.43
2023-05-07T02:28:10.239Z,15.43
2023-05-07T02:29:10.341Z,15.42
2023-05-07T02:30:10.597Z,15.41
2023-05-07T02:31:10.513Z,15.41
2023-05-07T02:32:10.738Z,15.39
2023-05-07T02:33:10.883Z,15.38
2023-05-07T02:34:10.746Z,15.38
2023-05-07T02:35:10.810Z,15.36
2023-05-07T02:36:10.906Z,15.35
2023-05-07T02:37:10.935Z,15.33
2023-05-07T02:38:11.045Z,15.31
2023-05-07T02:39:11.145Z,15.33
2023-05-07T02:40:11.470Z,15.31
2023-05-07T02:41:11.280Z,15.31
2023-05-07T02:42:11.335Z,15.28
2023-05-07T02:43:11.461Z,15.27
2023-05-07T02:44:11.516Z,15.26
2023-05-07T02:45:11.601Z,15.24
2023-05-07T02:46:11.723Z,15.21
2023-05-07T02:47:11.784Z,15.21
2023-05-07T02:48:11.897Z,15.21
2023-05-07T02:49:11.941Z,15.20
2023-05-07T02:50:12.296Z,15.20
2023-05-07T02:51:12.120Z,15.20
2023-05-07T02:52:12.190Z,15.20
2023-05-07T02:53:12.277Z,15.20
2023-05-07T02:54:12.329Z,15.20
2023-05-07T02:55:12.379Z,15.20
2023-05-07T02:56:12.495Z,15.20
2023-05-07T02:57:12.572Z,15.19
2023-05-07T02:58:12.688Z,15.19
2023-05-07T02:59:12.737Z,15.17
2023-05-07T03:00:12.943Z,15.15
2023-05-07T03:01:12.901Z,15.19
2023-05-07T03:02:13.007Z,15.17
2023-05-07T03:03:13.310Z,15.17
2023-05-07T03:04:13.184Z,15.17
2023-05-07T03:05:13.211Z,15.17
2023-05-07T03:06:13.389Z,15.17
2023-05-07T03:07:13.389Z,15.17
2023-05-07T03:08:13.500Z,15.17
2023-05-07T03:09:13.559Z,15.15
2023-05-07T03:10:13.756Z,15.13
2023-05-07T03:11:13.731Z,15.11
2023-05-07T03:12:24.013Z,15.12
2023-05-07T03:13:13.995Z,15.09
2023-05-07T03:14:13.987Z,15.09
2023-05-07T03:15:14.064Z,15.09
2023-05-07T03:16:14.171Z,15.09
2023-05-07T03:17:14.209Z,15.09
2023-05-07T03:18:14.441Z,15.09
2023-05-07T03:19:14.376Z,15.11
2023-05-07T03:20:14.839Z,15.11
2023-05-07T03:21:14.541Z,15.13
2023-05-07T03:22:14.643Z,15.12
2023-05-07T03:23:15.296Z,15.12
2023-05-07T03:24:14.803Z,15.13
2023-05-07T03:25:14.856Z,15.13
2023-05-07T03:26:14.999Z,15.15
2023-05-07T03:27:15.039Z,15.15
2023-05-07T03:28:15.185Z,15.17
2023-05-07T03:29:15.200Z,15.17
2023-05-07T03:30:15.292Z,15.15
2023-05-07T03:31:15.415Z,15.15
2023-05-07T03:32:15.501Z,15.15
2023-05-07T03:33:15.578Z,15.15
2023-05-07T03:34:15.640Z,15.15
2023-05-07T03:35:15.686Z,15.17
2023-05-07T03:36:15.779Z,15.17
2023-05-07T03:37:15.875Z,15.19
2023-05-07T03:38:15.971Z,15.19
2023-05-07T03:39:16.018Z,15.20
2023-05-07T03:40:16.105Z,15.19
2023-05-07T03:41:16.197Z,15.20
2023-05-07T03:42:16.289Z,15.20
2023-05-07T03:43:16.411Z,15.23
2023-05-07T03:44:16.459Z,15.21
2023-05-07T03:45:17.358Z,15.20
2023-05-07T03:46:16.716Z,15.21
2023-05-07T03:47:16.730Z,15.21
2023-05-07T03:48:16.831Z,15.23
2023-05-07T03:49:16.843Z,15.23
2023-05-07T03:50:16.950Z,15.21
2023-05-07T03:51:16.997Z,15.21
2023-05-07T03:52:17.101Z,15.23
2023-05-07T03:53:17.193Z,15.21
2023-05-07T03:54:17.254Z,15.20
2023-05-07T03:55:17.331Z,15.20
2023-05-07T03:56:19.556Z,15.20
2023-05-07T03:57:17.487Z,15.20
2023-05-07T03:58:17.604Z,15.21
2023-05-07T03:59:17.657Z,15.20
2023-05-07T04:00:17.773Z,15.19
2023-05-07T04:01:17.799Z,15.19
2023-05-07T04:02:17.920Z,15.19
2023-05-07T04:03:18.094Z,15.17
2023-05-07T04:04:18.143Z,15.15
2023-05-07T04:05:18.098Z,15.15
2023-05-07T04:06:18.183Z,15.13
2023-05-07T04:07:18.271Z,15.12
2023-05-07T04:08:18.404Z,15.12
2023-05-07T04:09:18.459Z,15.11
2023-05-07T04:10:18.550Z,15.08
2023-05-07T04:11:18.641Z,15.09
2023-05-07T04:12:18.748Z,15.08
2023-05-07T04:13:18.927Z,15.05
2023-05-07T04:14:18.948Z,15.05
2023-05-07T04:15:19.003Z,15.03
2023-05-07T04:16:19.110Z,15.05
2023-05-07T04:17:19.203Z,15.05
2023-05-07T04:18:27.596Z,15.03
2023-05-07T04:19:19.393Z,15.03
2023-05-07T04:20:19.440Z,15.02
2023-05-07T04:21:19.537Z,15.02
2023-05-07T04:22:19.636Z,15.01
2023-05-07T04:23:19.743Z,15.02
2023-05-07T04:24:19.796Z,15.01
2023-05-07T04:25:19.896Z,15.01
2023-05-07T04:26:20.000Z,15.01
2023-05-07T04:27:20.037Z,15.01
2023-05-07T04:28:20.163Z,15.01
2023-05-07T04:29:20.211Z,14.98
2023-05-07T04:30:20.305Z,14.98
2023-05-07T04:31:20.420Z,14.99
2023-05-07T04:32:20.507Z,14.98
2023-05-07T04:33:20.597Z,14.95
2023-05-07T04:34:20.636Z,14.98
2023-05-07T04:35:20.726Z,14.95
2023-05-07T04:36:20.822Z,14.95
2023-05-07T04:37:20.859Z,14.95
2023-05-07T04:38:20.973Z,14.95
2023-05-07T04:39:21.025Z,14.94
2023-05-07T04:40:21.151Z,14.95
2023-05-07T04:41:21.197Z,14.94
2023-05-07T04:42:21.286Z,14.93
2023-05-07T04:43:21.360Z,14.91
2023-05-07T04:44:21.416Z,14.90
2023-05-07T04:45:21.494Z,14.90
2023-05-07T04:46:21.616Z,14.90
2023-05-07T04:47:21.673Z,14.90
2023-05-07T04:48:21.817Z,14.90
2023-05-07T04:49:21.865Z,14.91
2023-05-07T04:50:21.977Z,14.93
2023-05-07T04:51:30.409Z,14.90
2023-05-07T04:52:22.149Z,14.91
2023-05-07T04:53:22.230Z,14.91
2023-05-07T04:54:22.314Z,14.93
2023-05-07T04:55:22.368Z,14.93
2023-05-07T04:56:22.464Z,14.91
2023-05-07T04:57:22.575Z,14.93
2023-05-07T04:58:22.661Z,14.93
2023-05-07T04:59:22.711Z,14.93
2023-05-07T05:00:22.802Z,14.91
2023-05-07T05:01:22.946Z,14.91
2023-05-07T05:02:22.982Z,14.91
2023-05-07T05:03:23.200Z,14.91
2023-05-07T05:04:23.142Z,14.91
2023-05-07T05:05:23.240Z,14.91
2023-05-07T05:06:23.330Z,14.90
2023-05-07T05:07:23.426Z,14.91
2023-05-07T05:08:23.554Z,14.91
2023-05-07T05:09:23.591Z,14.91
2023-05-07T05:10:24.576Z,14.91
2023-05-07T05:11:23.778Z,14.91
2023-05-07T05:12:23.869Z,14.90
2023-05-07T05:13:23.997Z,14.91
2023-05-07T05:14:24.041Z,14.90
2023-05-07T05:15:24.162Z,14.88
2023-05-07T05:16:24.246Z,14.90
2023-05-07T05:17:24.310Z,14.88
2023-05-07T05:18:24.382Z,14.88
2023-05-07T05:19:24.438Z,14.87
2023-05-07T05:20:24.519Z,14.86
2023-05-07T05:21:24.608Z,14.87
2023-05-07T05:22:24.705Z,14.88
2023-05-07T05:23:24.829Z,14.90
2023-05-07T05:24:24.883Z,14.91
2023-05-07T05:25:24.994Z,14.91
2023-05-07T05:26:25.050Z,14.94
2023-05-07T05:27:25.125Z,14.93
2023-05-07T05:28:25.258Z,14.95
2023-05-07T05:29:25.294Z,14.98
2023-05-07T05:30:25.387Z,14.98
2023-05-07T05:31:25.549Z,14.98
2023-05-07T05:32:25.615Z,15.01
2023-05-07T05:33:25.652Z,14.99
2023-05-07T05:34:25.714Z,14.99
2023-05-07T05:35:25.825Z,15.01
2023-05-07T05:36:25.914Z,15.01
2023-05-07T05:37:25.993Z,15.01
2023-05-07T05:38:26.095Z,15.02
2023-05-07T05:39:26.118Z,15.01
2023-05-07T05:40:26.174Z,15.02
2023-05-07T05:41:26.299Z,15.02
2023-05-07T05:42:26.359Z,15.03
2023-05-07T05:43:26.426Z,15.02
2023-05-07T05:44:26.484Z,15.02
2023-05-07T05:45:26.539Z,15.03
2023-05-07T05:46:26.686Z,15.02
2023-05-07T05:47:26.747Z,15.03
2023-05-07T05:48:26.826Z,15.05
2023-05-07T05:49:26.892Z,15.05
2023-05-07T05:50:27.065Z,15.03
2023-05-07T05:51:27.036Z,15.05
2023-05-07T05:52:27.088Z,15.03
2023-05-07T05:53:27.197Z,15.05
2023-05-07T05:54:27.248Z,15.05
2023-05-07T05:55:27.315Z,15.02
2023-05-07T05:56:27.425Z,15.05
2023-05-07T05:57:28.739Z,15.03
2023-05-07T05:58:27.627Z,15.05
2023-05-07T05:59:27.708Z,15.05
2023-05-07T06:00:27.775Z,15.05
2023-05-07T06:01:27.863Z,15.05
2023-05-07T06:02:28.030Z,15.06
2023-05-07T06:03:28.088Z,15.06
2023-05-07T06:04:28.174Z,15.06
2023-05-07T06:05:28.353Z,15.06
2023-05-07T06:06:28.274Z,15.08
2023-05-07T06:07:28.322Z,15.09
2023-05-07T06:08:28.408Z,15.11
2023-05-07T06:09:28.526Z,15.09
2023-05-07T06:10:28.566Z,15.11
2023-05-07T06:11:28.634Z,15.11
2023-05-07T06:12:28.760Z,15.12
2023-05-07T06:13:28.927Z,15.12
2023-05-07T06:14:28.897Z,15.13
2023-05-07T06:15:29.001Z,15.12
2023-05-07T06:16:29.102Z,15.13
2023-05-07T06:37:13.452Z,14.62
2023-05-07T06:38:14.553Z,14.65
2023-05-07T06:39:15.200Z,14.67
2023-05-07T06:40:14.623Z,14.69
2023-05-07T06:41:14.701Z,14.78
2023-05-07T06:42:14.824Z,14.81
2023-05-07T06:43:14.869Z,14.87
2023-05-07T06:44:14.936Z,14.93
2023-05-07T06:51:53.099Z,14.88
2023-05-07T06:52:54.211Z,14.90
2023-05-07T06:53:54.209Z,14.91
2023-05-07T06:54:54.282Z,14.95
2023-05-07T06:55:54.360Z,15.02
2023-05-07T06:56:54.403Z,15.06
2023-05-07T06:57:54.502Z,15.11
2023-05-07T06:58:54.579Z,15.17
2023-05-07T06:59:54.658Z,15.21
2023-05-07T07:00:54.744Z,15.24
2023-05-07T07:01:54.945Z,15.28
2023-05-07T07:02:54.966Z,15.30
2023-05-07T07:03:54.994Z,15.35
2023-05-07T07:04:55.142Z,15.39
2023-05-07T07:05:55.194Z,15.42
2023-05-07T07:06:55.306Z,15.45
2023-05-07T07:07:55.382Z,15.48
2023-05-07T07:08:55.447Z,15.51
2023-05-07T07:09:55.554Z,15.54
2023-05-07T07:10:55.623Z,15.57
2023-05-07T07:11:55.721Z,15.61
2023-05-07T07:12:55.809Z,15.61
2023-05-07T07:13:55.853Z,15.66
2023-05-07T07:14:55.970Z,15.68
2023-05-07T07:15:56.021Z,15.68
2023-05-07T07:16:56.148Z,15.72
2023-05-07T07:17:56.240Z,15.74
2023-05-07T07:18:56.230Z,15.75
2023-05-07T07:19:56.331Z,15.79
2023-05-07T07:20:56.395Z,15.79
2023-05-07T07:21:56.479Z,15.84
2023-05-07T07:22:56.530Z,15.85
2023-05-07T07:23:56.619Z,15.86
2023-05-07T07:24:56.700Z,15.89
2023-05-07T07:25:56.784Z,15.92
2023-05-07T07:26:56.897Z,15.94
2023-05-07T07:27:56.952Z,15.96
2023-05-07T07:28:57.029Z,15.97
2023-05-07T07:29:57.128Z,15.99
2023-05-07T07:30:57.175Z,16.01
2023-05-07T07:31:57.305Z,16.03
2023-05-07T07:32:57.404Z,16.04
2023-05-07T07:33:57.425Z,16.07
2023-05-07T07:34:57.529Z,16.11
2023-05-07T07:35:57.633Z,16.14
2023-05-07T07:36:57.716Z,16.16
2023-05-07T07:37:57.756Z,16.20
2023-05-07T07:38:57.801Z,16.22
2023-05-07T07:39:57.904Z,16.25
2023-05-07T07:40:58.000Z,16.26
2023-05-07T07:41:58.095Z,16.30
2023-05-07T07:42:58.158Z,16.31
2023-05-07T07:43:58.240Z,16.34
2023-05-07T07:44:58.360Z,16.37
2023-05-07T07:45:58.407Z,16.40
2023-05-07T07:46:58.497Z,16.41
2023-05-07T07:47:58.624Z,16.42
2023-05-07T07:48:58.642Z,16.48
2023-05-07T07:49:58.757Z,16.50
2023-05-07T07:50:58.849Z,16.52
2023-05-07T07:51:58.949Z,16.53
2023-05-07T07:52:58.995Z,16.55
2023-05-07T07:53:59.099Z,16.59
2023-05-07T07:54:59.188Z,16.60
2023-05-07T07:55:59.831Z,16.62
2023-05-07T07:56:59.401Z,16.63
2023-05-07T07:57:59.488Z,16.65
2023-05-07T07:58:59.519Z,16.67
2023-05-07T07:59:59.621Z,16.68
2023-05-07T08:00:59.710Z,16.70
2023-05-07T08:01:59.862Z,16.74
2023-05-07T08:03:00.118Z,16.74
2023-05-07T08:05:34.978Z,16.80
2023-05-07T08:06:36.933Z,16.80
2023-05-07T08:21:00.168Z,16.60
2023-05-07T08:22:01.153Z,16.62
2023-05-07T08:23:00.172Z,16.67
2023-05-07T08:24:00.235Z,16.68
2023-05-07T08:25:00.301Z,16.74
2023-05-07T08:26:00.394Z,16.78
2023-05-07T08:27:00.484Z,16.81
2023-05-07T08:28:00.594Z,16.88
2023-05-07T08:29:00.673Z,16.92
2023-05-07T08:30:00.785Z,16.95
2023-05-07T08:31:00.982Z,16.99
2023-05-07T08:32:00.929Z,17.03
2023-05-07T08:33:01.085Z,17.07
2023-05-07T08:34:01.116Z,17.10
2023-05-07T08:35:01.196Z,17.13
2023-05-07T08:36:01.237Z,17.17
2023-05-07T08:37:01.346Z,17.20
2023-05-07T08:38:01.472Z,17.22
2023-05-07T08:39:01.507Z,17.25
2023-05-07T08:40:01.606Z,17.28
2023-05-07T08:41:01.693Z,17.30
2023-05-07T08:42:01.781Z,17.33
2023-05-07T08:43:01.892Z,17.35
2023-05-07T08:44:01.945Z,17.35
2023-05-07T08:45:02.054Z,17.36
2023-05-07T08:46:02.192Z,17.41
2023-05-07T08:51:16.295Z,17.35
2023-05-07T08:52:17.371Z,17.33
2023-05-07T08:53:15.938Z,17.32
2023-05-07T09:14:17.351Z,17.28
2023-05-07T09:15:18.504Z,17.29
2023-05-07T09:28:23.155Z,17.33
2023-05-07T09:34:04.285Z,17.51
2023-05-07T09:34:59.873Z,17.55
2023-05-07T09:35:59.879Z,17.63
2023-05-07T09:36:59.951Z,17.71
2023-05-07T09:38:02.334Z,17.79
2023-05-07T09:39:00.106Z,17.87
2023-05-07T09:40:00.205Z,17.95
2023-05-07T09:41:00.257Z,18.03
2023-05-07T09:42:00.345Z,18.12
2023-05-07T09:43:00.437Z,18.17
2023-05-07T09:44:00.497Z,18.24
2023-05-07T09:45:00.636Z,18.31
2023-05-07T09:46:00.716Z,18.39
2023-05-07T09:55:48.047Z,18.49
2023-05-07T09:56:49.036Z,18.54
2023-05-07T09:57:49.011Z,18.61
2023-05-07T09:58:49.151Z,18.68
2023-05-07T09:59:49.346Z,18.77
2023-05-07T10:00:49.312Z,18.86
2023-05-07T10:01:49.439Z,18.92
2023-05-07T10:02:49.584Z,19.01
2023-05-07T10:25:36.024Z,19.20
2023-05-07T10:26:37.107Z,19.28
2023-05-07T10:27:37.124Z,19.35
2023-05-07T10:28:37.282Z,19.43
2023-05-07T10:29:37.373Z,19.54
2023-05-07T10:30:38.394Z,19.65
2023-05-07T10:31:37.534Z,19.73
2023-05-07T10:32:38.399Z,19.84
2023-05-07T10:33:37.601Z,19.94
2023-05-07T10:34:37.667Z,20.03
2023-05-07T10:35:37.720Z,20.10
2023-05-07T10:36:38.603Z,20.16
2023-05-07T10:37:37.912Z,20.24
2023-05-07T10:38:38.024Z,20.28
2023-05-07T10:39:38.171Z,20.35
2023-05-07T10:40:47.827Z,20.41
2023-05-07T10:52:06.778Z,20.43
2023-05-07T10:53:07.929Z,20.46
2023-05-07T10:54:07.835Z,20.50
2023-05-07T10:55:08.478Z,20.54
2023-05-07T11:59:05.435Z,20.49
2023-05-07T12:00:06.528Z,20.49
2023-05-07T12:01:06.537Z,20.50
2023-05-07T12:02:06.645Z,20.54
2023-05-07T12:03:06.975Z,20.61
2023-05-07T12:04:06.937Z,20.68
2023-05-07T12:05:06.851Z,20.72
2023-05-07T12:06:06.929Z,20.77
2023-05-07T12:07:07.005Z,20.81
2023-05-07T12:08:07.121Z,20.86
2023-05-07T12:09:07.130Z,20.90
2023-05-07T12:10:07.272Z,20.93
2023-05-07T12:11:07.312Z,20.96
2023-05-07T12:12:07.467Z,21.01
2023-05-07T12:13:07.510Z,21.05
2023-05-07T12:14:09.478Z,21.08
2023-05-07T12:15:07.697Z,21.13
2023-05-07T12:18:00.242Z,21.19
2023-05-07T12:19:00.998Z,21.20
2023-05-07T12:20:01.109Z,21.21
2023-05-07T12:21:01.142Z,21.24
2023-05-07T12:22:01.217Z,21.26
2023-05-07T12:23:04.043Z,21.30
2023-05-07T12:24:02.742Z,21.32
2023-05-07T12:49:11.803Z,20.81
2023-05-07T12:50:12.240Z,20.86
2023-05-07T12:51:12.526Z,20.89
2023-05-07T12:59:23.415Z,21.04
2023-05-07T13:00:18.543Z,21.06
2023-05-07T13:01:17.890Z,21.09
2023-05-07T13:02:17.862Z,21.17
2023-05-07T13:03:17.965Z,21.23
2023-05-07T13:04:18.118Z,21.29
2023-05-07T13:05:18.117Z,21.35
2023-05-07T13:06:46.610Z,21.39
2023-05-07T13:07:18.540Z,21.45
2023-05-07T14:56:54.243Z,18.70
2023-05-07T14:57:56.130Z,18.73
2023-05-07T15:01:15.300Z,18.73
2023-05-07T15:18:27.968Z,18.39
2023-05-07T15:19:28.806Z,18.40
2023-05-07T15:20:29.455Z,18.46
2023-05-07T15:21:28.941Z,18.50
2023-05-07T15:22:28.991Z,18.54
2023-05-07T15:23:29.114Z,18.58
2023-05-07T15:24:29.160Z,18.59
2023-05-07T15:25:29.265Z,18.64
2023-05-07T15:26:29.468Z,18.67
2023-05-07T15:27:29.775Z,18.67
2023-05-07T15:28:40.373Z,18.68
2023-05-07T15:29:29.586Z,18.65
2023-05-07T15:40:31.147Z,18.28
2023-05-07T15:41:32.082Z,18.28
2023-05-07T15:42:32.239Z,18.28
2023-05-07T15:43:32.191Z,18.28
2023-05-07T15:44:33.462Z,18.31
2023-05-07T15:45:32.483Z,18.34
2023-05-07T15:46:32.465Z,18.37
2023-05-07T15:47:32.564Z,18.39
2023-05-07T15:48:32.640Z,18.40
2023-05-07T15:49:32.656Z,18.42
2023-05-07T15:50:32.809Z,18.43
2023-05-07T15:51:32.809Z,18.46
2023-05-07T15:52:32.874Z,18.46
2023-05-07T15:53:32.950Z,18.47
2023-05-07T15:54:33.049Z,18.49
2023-05-07T15:55:33.178Z,18.50
2023-05-07T15:56:33.277Z,18.52
2023-05-07T15:57:33.305Z,18.52
2023-05-07T15:58:33.350Z,18.55
2023-05-07T15:59:33.463Z,18.58
2023-05-07T16:00:33.526Z,18.61
2023-05-07T16:01:33.628Z,18.62
2023-05-07T16:02:33.821Z,18.65
2023-05-07T16:03:33.972Z,18.68
2023-05-07T16:04:33.813Z,18.70
2023-05-07T16:05:33.932Z,18.73
2023-05-07T16:06:33.969Z,18.74
2023-05-07T16:07:34.069Z,18.77
2023-05-07T16:08:34.168Z,18.79
2023-05-07T16:09:34.239Z,18.83
2023-05-07T16:10:34.398Z,18.83
2023-05-07T16:11:34.640Z,18.84
2023-05-07T16:12:34.516Z,18.84
2023-05-07T16:13:34.560Z,18.87
2023-05-07T16:14:35.939Z,18.87
2023-05-07T16:15:44.052Z,18.86
2023-05-07T16:16:34.930Z,18.84
2023-05-07T16:22:02.332Z,18.65
2023-05-07T16:23:03.190Z,18.62
2023-05-07T16:24:03.266Z,18.59
2023-05-07T16:25:03.340Z,18.61
2023-05-07T16:26:03.402Z,18.64
2023-05-07T16:27:03.536Z,18.64
2023-05-07T16:28:03.600Z,18.67
2023-05-07T16:29:03.701Z,18.67
2023-05-07T16:30:03.787Z,18.65
2023-05-07T16:31:03.924Z,18.64
2023-05-07T16:32:03.955Z,18.62
2023-05-07T16:33:04.110Z,18.59
2023-05-07T16:34:04.073Z,18.58
2023-05-07T16:35:04.160Z,18.55
2023-05-07T16:36:04.309Z,18.55
2023-05-07T16:37:04.318Z,18.52
2023-05-07T16:43:51.738Z,18.22
2023-05-07T16:44:52.602Z,18.21
2023-05-07T16:45:52.817Z,18.19
2023-05-07T16:46:52.826Z,18.24
2023-05-07T16:47:53.242Z,18.27
2023-05-07T16:48:52.910Z,18.28
2023-05-07T16:56:06.317Z,18.12
2023-05-07T16:57:07.112Z,18.13
2023-05-07T16:58:07.196Z,18.15
2023-05-07T16:59:07.432Z,18.17
2023-05-07T17:00:07.705Z,18.21
2023-05-07T17:01:07.424Z,18.24
2023-05-07T17:02:07.623Z,18.27
2023-05-07T17:28:30.008Z,17.41
2023-05-07T17:29:30.930Z,17.43
2023-05-07T17:30:30.996Z,17.43
2023-05-07T17:31:31.021Z,17.47
2023-05-07T17:32:31.206Z,17.53
2023-05-07T17:33:31.167Z,17.57
2023-05-07T17:34:31.266Z,17.62
2023-05-07T17:35:31.400Z,17.64
2023-05-07T17:36:31.450Z,17.67
2023-05-07T17:37:31.554Z,17.71
2023-05-07T17:38:33.731Z,17.73
2023-05-07T17:39:31.670Z,17.76
2023-05-07T17:40:31.786Z,17.81
2023-05-07T17:41:31.843Z,17.82
2023-05-07T17:42:31.898Z,17.85
2023-05-07T17:43:31.937Z,17.89
2023-05-07T17:44:32.078Z,17.92
2023-05-07T17:45:32.194Z,17.95
2023-05-07T17:46:32.250Z,17.99
2023-05-07T17:47:32.325Z,17.99
2023-05-07T17:48:32.401Z,18.00
2023-05-07T17:49:32.456Z,18.03
2023-05-07T17:50:32.572Z,18.04
2023-05-07T17:51:42.467Z,18.06
2023-05-07T17:52:32.720Z,18.06
2023-05-07T17:53:32.835Z,18.07
2023-05-07T17:54:32.904Z,18.07
2023-05-07T17:55:32.987Z,18.09
2023-05-07T17:56:33.084Z,18.10
2023-05-07T17:57:33.197Z,18.10
2023-05-07T17:58:38.426Z,18.13
2023-05-07T17:59:33.389Z,18.13
2023-05-07T18:00:33.454Z,18.15
2023-05-07T18:01:33.610Z,18.17
2023-05-07T18:02:33.665Z,18.15
2023-05-07T18:03:33.815Z,18.19
2023-05-07T18:04:33.777Z,18.19
2023-05-07T18:05:33.918Z,18.21
2023-05-07T18:06:33.982Z,18.21
2023-05-07T18:07:34.037Z,18.24
2023-05-07T18:08:34.145Z,18.22
2023-05-07T18:09:34.190Z,18.22
2023-05-07T18:10:34.264Z,18.22
2023-05-07T18:11:34.357Z,18.24
2023-05-07T18:12:34.583Z,18.24
2023-05-07T18:13:34.565Z,18.24
2023-05-07T18:14:34.691Z,18.24
2023-05-07T18:15:34.686Z,18.25
2023-05-07T18:16:35.020Z,18.24
2023-05-07T18:17:34.961Z,18.25
2023-05-07T18:18:35.637Z,18.28
2023-05-07T18:19:35.099Z,18.27
2023-05-07T18:20:35.132Z,18.28
2023-05-07T18:21:35.346Z,18.28
2023-05-07T18:22:35.339Z,18.28
2023-05-07T18:23:35.518Z,18.27
2023-05-07T18:24:35.721Z,18.27
2023-05-07T18:25:35.555Z,18.27
2023-05-07T18:26:35.773Z,18.24
2023-05-07T18:27:35.951Z,18.25
2023-05-07T18:28:36.200Z,18.24
2023-05-07T18:29:37.776Z,18.24
2023-05-07T18:30:36.233Z,18.22
2023-05-07T18:31:38.397Z,18.21
2023-05-07T18:32:40.417Z,18.22
2023-05-07T18:33:41.140Z,18.19
2023-05-07T18:34:37.339Z,18.19
2023-05-07T18:35:36.471Z,18.18
2023-05-07T18:36:36.529Z,18.15
2023-05-07T18:37:38.696Z,18.13
2023-05-07T18:38:36.793Z,18.10
2023-05-07T18:39:36.897Z,18.09
2023-05-07T18:40:37.638Z,18.06
2023-05-07T18:41:39.866Z,18.03
2023-05-07T18:42:37.364Z,18.02
2023-05-07T18:43:37.198Z,17.97
2023-05-07T18:45:45.245Z,17.94
2023-05-07T18:46:44.985Z,17.92
2023-05-07T18:47:47.407Z,17.88
2023-05-07T18:51:43.205Z,17.64
2023-05-07T18:52:43.959Z,17.59
2023-05-07T18:53:43.988Z,17.59
2023-05-07T18:54:44.247Z,17.62
2023-05-07T18:55:44.883Z,17.63
2023-05-07T18:56:45.317Z,17.67
2023-05-07T18:57:45.290Z,17.69
2023-05-07T18:58:44.503Z,17.70
2023-05-07T18:59:45.233Z,17.71
2023-05-07T19:00:46.699Z,17.74
2023-05-07T19:01:44.903Z,17.76
2023-05-07T19:02:44.974Z,17.79
2023-05-07T19:03:45.950Z,17.78
2023-05-07T19:04:45.314Z,17.81
2023-05-07T19:05:46.119Z,17.82
2023-05-07T19:06:45.282Z,17.84
2023-05-07T19:07:45.043Z,17.84
2023-05-07T19:08:46.179Z,17.84
2023-05-07T19:09:57.107Z,17.84
2023-05-07T19:10:45.633Z,17.85
2023-05-07T19:11:46.050Z,17.85
2023-05-07T19:12:47.967Z,17.87
2023-05-07T19:13:45.712Z,17.84
2023-05-07T19:14:45.913Z,17.85
2023-05-07T19:16:04.697Z,17.82
2023-05-07T19:16:46.576Z,17.82
2023-05-07T19:17:48.188Z,17.82
2023-05-07T19:18:47.297Z,17.82
2023-05-07T19:19:50.462Z,17.84
2023-05-07T19:20:48.000Z,17.82
2023-05-07T19:21:47.742Z,17.82
2023-05-07T19:22:48.453Z,17.84
2023-05-07T19:23:51.483Z,17.82
2023-05-07T19:24:48.568Z,17.82
2023-05-07T19:25:48.670Z,17.81
2023-05-07T19:26:47.153Z,17.78
2023-05-07T19:27:50.077Z,17.76
2023-05-07T19:28:52.012Z,17.73
2023-05-07T19:29:49.832Z,17.70
2023-05-07T19:30:48.046Z,17.69
2023-05-07T19:31:49.001Z,17.66
2023-05-07T19:32:48.828Z,17.66
2023-05-07T19:33:47.516Z,17.64
2023-05-07T19:34:48.980Z,17.64
2023-05-07T19:35:49.994Z,17.64
2023-05-07T19:36:49.640Z,17.64